Time;durP1;ratioP1;P1;durP2;ratioP2;P2;SDS_P1;SDS_P2;PMS_P1;PMS_P2;Temp;Humidity;BMP_temperature;BMP_pressure;BME280_temperature;BME280_humidity;BME280_pressure;Samples;Min_cycle;Max_cycle;Signal;HPM_P1;HPM_P2
2022/01/20 00:01:46;;;;;;;119.50;70.43;;;;;;;;;;5006643;28;20058;-63
2022/01/20 00:04:21;;;;;;;130.33;74.23;;;;;;;;;;4976640;28;20065;-63
2022/01/20 00:09:45;;;;;;;130.50;74.53;;;;;;;;;;4994538;28;20034;-63
2022/01/20 00:23:15;;;;;;;123.10;72.43;;;;;;;;;;4993776;28;20503;-63
2022/01/20 00:26:16;;;;;;;116.80;69.28;;;;;;;;;;5000127;28;20044;-62
2022/01/20 00:28:46;;;;;;;114.80;69.43;;;;;;;;;;5002071;28;20046;-63
2022/01/20 00:33:50;;;;;;;122.70;71.40;;;;;;;;;;5010610;28;20109;-62
2022/01/20 00:38:45;;;;;;;114.40;69.20;;;;;;;;;;4996093;28;20038;-62
2022/01/20 00:41:15;;;;;;;123.20;72.10;;;;;;;;;;4993529;28;20203;-62
2022/01/20 00:43:42;;;;;;;112.07;67.13;;;;;;;;;;4993922;28;20022;-62
2022/01/20 00:46:08;;;;;;;109.83;65.97;;;;;;;;;;4993114;28;20516;-62
2022/01/20 00:48:34;;;;;;;114.00;69.40;;;;;;;;;;4993797;28;20562;-62
2022/01/20 00:51:00;;;;;;;113.27;65.23;;;;;;;;;;4994920;28;20037;-62
2022/01/20 00:53:26;;;;;;;107.60;64.20;;;;;;;;;;5009783;28;20030;-62
2022/01/20 00:55:52;;;;;;;113.47;67.00;;;;;;;;;;5013056;28;20473;-62
2022/01/20 00:58:18;;;;;;;102.70;63.53;;;;;;;;;;5001140;28;20027;-62
2022/01/20 01:00:44;;;;;;;114.47;68.73;;;;;;;;;;4981903;28;20405;-63
2022/01/20 01:03:10;;;;;;;104.63;63.67;;;;;;;;;;5008193;28;20022;-62
2022/01/20 01:05:45;;;;;;;105.63;63.40;;;;;;;;;;5011711;28;20452;-63
2022/01/20 01:08:11;;;;;;;111.33;63.47;;;;;;;;;;5008181;28;20461;-62
2022/01/20 01:10:39;;;;;;;99.00;60.03;;;;;;;;;;5008623;28;20101;-63
2022/01/20 01:13:10;;;;;;;99.53;61.80;;;;;;;;;;5009150;28;20022;-62
2022/01/20 01:15:41;;;;;;;103.37;63.50;;;;;;;;;;4996530;28;20025;-62
2022/01/20 01:23:33;;;;;;;100.87;61.83;;;;;;;;;;5006919;28;20038;-62
2022/01/20 01:26:00;;;;;;;108.57;64.00;;;;;;;;;;5012698;28;20018;-62
2022/01/20 01:28:29;;;;;;;106.10;63.77;;;;;;;;;;5006511;28;20022;-63
2022/01/20 01:33:30;;;;;;;111.43;68.57;;;;;;;;;;5001049;28;20022;-62
2022/01/20 01:35:58;;;;;;;107.47;69.23;;;;;;;;;;5010313;28;20030;-63
2022/01/20 01:38:38;;;;;;;108.60;67.50;;;;;;;;;;5009398;28;20056;-63
2022/01/20 01:41:04;;;;;;;108.83;69.40;;;;;;;;;;5030895;28;20029;-63
2022/01/20 01:43:32;;;;;;;114.97;70.33;;;;;;;;;;5024974;28;20018;-62
2022/01/20 01:46:00;;;;;;;114.57;69.03;;;;;;;;;;5012450;28;20052;-62
2022/01/20 01:48:26;;;;;;;112.30;70.97;;;;;;;;;;5008208;28;20018;-62
2022/01/20 01:50:52;;;;;;;110.63;67.70;;;;;;;;;;4996199;28;20034;-63
2022/01/20 01:53:19;;;;;;;112.03;71.77;;;;;;;;;;4998669;28;20431;-62
2022/01/20 01:55:45;;;;;;;114.77;70.63;;;;;;;;;;5009839;28;20041;-62
2022/01/20 01:58:11;;;;;;;111.20;69.90;;;;;;;;;;5002028;28;20476;-63
2022/01/20 02:00:37;;;;;;;114.17;70.63;;;;;;;;;;5014255;28;20479;-62
2022/01/20 02:03:03;;;;;;;111.00;68.07;;;;;;;;;;5035732;28;20018;-62
2022/01/20 02:05:31;;;;;;;117.27;71.60;;;;;;;;;;5012998;28;20113;-62
2022/01/20 02:08:23;;;;;;;112.33;71.33;;;;;;;;;;4996533;28;20029;-62
2022/01/20 02:19:06;;;;;;;116.70;70.73;;;;;;;;;;4996250;28;20096;-62
2022/01/20 02:21:32;;;;;;;114.63;71.23;;;;;;;;;;4995752;28;20046;-62
2022/01/20 02:23:58;;;;;;;115.73;68.03;;;;;;;;;;4996235;28;20026;-62
2022/01/20 02:26:24;;;;;;;115.13;70.73;;;;;;;;;;4996075;28;20153;-63
2022/01/20 02:28:50;;;;;;;109.80;69.13;;;;;;;;;;5003284;28;20060;-62
2022/01/20 02:31:16;;;;;;;112.83;69.33;;;;;;;;;;5015491;28;20030;-62
2022/01/20 02:33:42;;;;;;;114.73;69.93;;;;;;;;;;5010145;28;20030;-62
2022/01/20 02:36:12;;;;;;;115.60;70.20;;;;;;;;;;5015374;28;20041;-62
2022/01/20 02:38:47;;;;;;;116.87;69.37;;;;;;;;;;5003694;28;20027;-62
2022/01/20 02:46:43;;;;;;;116.88;70.75;;;;;;;;;;4995152;28;20558;-63
2022/01/20 02:49:13;;;;;;;115.30;70.57;;;;;;;;;;5006945;28;20482;-62
2022/01/20 02:51:39;;;;;;;115.17;68.10;;;;;;;;;;5015077;28;20029;-63
2022/01/20 02:54:10;;;;;;;115.00;68.13;;;;;;;;;;4999823;28;20031;-62
2022/01/20 02:56:36;;;;;;;115.97;69.07;;;;;;;;;;4995051;28;20032;-62
2022/01/20 02:59:02;;;;;;;116.33;68.80;;;;;;;;;;4995055;28;20113;-62
2022/01/20 03:01:28;;;;;;;113.57;68.37;;;;;;;;;;5002870;28;20044;-62
2022/01/20 03:03:54;;;;;;;117.20;69.07;;;;;;;;;;4999923;28;20037;-63
2022/01/20 03:06:20;;;;;;;114.77;67.27;;;;;;;;;;4995003;28;20034;-62
2022/01/20 03:08:46;;;;;;;119.73;69.63;;;;;;;;;;4995793;28;20471;-62
2022/01/20 03:11:12;;;;;;;121.47;68.93;;;;;;;;;;5012927;28;20068;-62
2022/01/20 03:13:38;;;;;;;121.00;71.60;;;;;;;;;;5013385;28;20026;-62
2022/01/20 03:16:04;;;;;;;110.83;66.77;;;;;;;;;;5013899;28;20041;-62
2022/01/20 03:18:30;;;;;;;110.00;66.27;;;;;;;;;;5004950;28;20584;-62
2022/01/20 03:20:56;;;;;;;96.43;61.00;;;;;;;;;;4995065;28;20431;-62
2022/01/20 03:23:22;;;;;;;102.73;63.03;;;;;;;;;;4995118;28;20038;-62
2022/01/20 03:25:48;;;;;;;101.57;64.57;;;;;;;;;;4994618;28;20034;-62
2022/01/20 03:28:14;;;;;;;108.33;66.90;;;;;;;;;;4995125;28;20041;-62
2022/01/20 03:30:40;;;;;;;103.73;63.93;;;;;;;;;;4994595;28;20121;-62
2022/01/20 03:33:06;;;;;;;106.97;64.13;;;;;;;;;;4995707;28;20038;-62
2022/01/20 03:35:32;;;;;;;111.50;66.03;;;;;;;;;;5012754;28;20030;-62
2022/01/20 03:37:58;;;;;;;106.17;63.67;;;;;;;;;;5013540;28;20034;-62
2022/01/20 03:40:24;;;;;;;101.87;62.90;;;;;;;;;;5013800;28;20045;-62
2022/01/20 03:42:51;;;;;;;107.27;63.37;;;;;;;;;;5014335;28;20383;-62
2022/01/20 03:45:17;;;;;;;101.57;62.13;;;;;;;;;;4994958;28;20121;-62
2022/01/20 03:47:43;;;;;;;102.57;63.07;;;;;;;;;;4994313;28;20034;-62
2022/01/20 03:50:59;;;;;;;108.03;61.53;;;;;;;;;;5011091;28;20040;-62
2022/01/20 03:52:55;;;;;;;102.83;60.30;;;;;;;;;;5013425;28;20026;-62
2022/01/20 03:55:22;;;;;;;100.77;61.33;;;;;;;;;;5013169;28;20502;-63
2022/01/20 03:57:48;;;;;;;101.23;61.27;;;;;;;;;;5013744;28;20057;-62
2022/01/20 04:00:14;;;;;;;101.67;60.77;;;;;;;;;;5012980;28;20030;-63
2022/01/20 04:02:40;;;;;;;98.33;60.57;;;;;;;;;;5014171;28;20026;-63
2022/01/20 04:05:06;;;;;;;97.43;57.93;;;;;;;;;;5012945;28;20033;-63
2022/01/20 04:07:32;;;;;;;104.10;61.07;;;;;;;;;;5012962;28;20551;-63
2022/01/20 04:09:58;;;;;;;99.83;61.50;;;;;;;;;;5012918;28;20065;-63
2022/01/20 04:12:24;;;;;;;96.70;59.20;;;;;;;;;;5013598;28;20115;-63
2022/01/20 04:14:50;;;;;;;95.77;59.23;;;;;;;;;;5012703;28;20690;-63
2022/01/20 04:17:21;;;;;;;97.57;58.87;;;;;;;;;;5013856;28;20442;-63
2022/01/20 04:19:47;;;;;;;104.07;61.27;;;;;;;;;;5012777;28;20121;-63
2022/01/20 04:22:13;;;;;;;96.83;59.70;;;;;;;;;;5013480;28;20034;-63
2022/01/20 04:24:39;;;;;;;100.77;62.53;;;;;;;;;;5012822;28;20037;-62
2022/01/20 04:27:06;;;;;;;98.67;61.30;;;;;;;;;;5013425;28;20040;-62
2022/01/20 04:29:33;;;;;;;98.37;60.47;;;;;;;;;;5004196;28;20034;-63
2022/01/20 04:31:59;;;;;;;98.97;60.37;;;;;;;;;;4993947;28;20034;-63
2022/01/20 04:34:25;;;;;;;101.40;61.83;;;;;;;;;;5002386;28;20034;-63
2022/01/20 04:36:53;;;;;;;97.67;60.33;;;;;;;;;;4994768;28;20026;-63
2022/01/20 04:39:23;;;;;;;103.60;63.40;;;;;;;;;;5001892;28;20543;-63
2022/01/20 04:41:51;;;;;;;101.73;61.70;;;;;;;;;;5013245;28;20083;-63
2022/01/20 04:44:32;;;;;;;104.67;64.47;;;;;;;;;;5012930;28;20135;-63
2022/01/20 04:47:11;;;;;;;103.60;62.43;;;;;;;;;;5013029;28;20081;-63
2022/01/20 04:57:50;;;;;;;108.30;66.00;;;;;;;;;;5013366;28;20041;-62
2022/01/20 05:00:16;;;;;;;116.23;67.33;;;;;;;;;;4997422;28;20034;-63
2022/01/20 05:02:43;;;;;;;111.63;67.87;;;;;;;;;;4987957;28;20034;-62
2022/01/20 05:05:09;;;;;;;113.50;66.83;;;;;;;;;;5011725;28;20030;-62
2022/01/20 05:07:35;;;;;;;117.57;67.43;;;;;;;;;;5013013;28;20053;-62
2022/01/20 05:10:06;;;;;;;122.03;68.50;;;;;;;;;;5011843;28;20119;-63
2022/01/20 05:15:16;;;;;;;113.40;68.78;;;;;;;;;;5012397;28;20463;-62
2022/01/20 05:17:42;;;;;;;107.43;66.83;;;;;;;;;;5012675;28;20018;-62
2022/01/20 05:20:08;;;;;;;103.93;65.37;;;;;;;;;;4994264;28;20040;-62
2022/01/20 05:22:34;;;;;;;106.03;63.87;;;;;;;;;;5013206;28;20018;-62
2022/01/20 05:25:02;;;;;;;105.63;62.87;;;;;;;;;;5015992;28;20459;-62
2022/01/20 05:27:28;;;;;;;103.00;63.73;;;;;;;;;;5016777;28;20466;-62
2022/01/20 05:29:55;;;;;;;107.77;65.50;;;;;;;;;;5005372;28;20574;-62
2022/01/20 05:32:21;;;;;;;107.77;65.30;;;;;;;;;;5005566;28;20108;-62
2022/01/20 05:34:47;;;;;;;104.47;64.17;;;;;;;;;;5013113;28;20386;-62
2022/01/20 05:37:13;;;;;;;109.97;66.27;;;;;;;;;;5016347;28;20112;-63
2022/01/20 05:39:41;;;;;;;105.27;65.77;;;;;;;;;;5007850;28;20026;-62
2022/01/20 05:42:07;;;;;;;107.20;65.67;;;;;;;;;;4996701;28;20097;-63
2022/01/20 05:44:33;;;;;;;103.33;63.90;;;;;;;;;;5003811;28;20018;-63
2022/01/20 05:47:05;;;;;;;102.57;64.23;;;;;;;;;;5014594;28;20458;-63
2022/01/20 05:49:31;;;;;;;104.13;63.33;;;;;;;;;;5009781;28;20025;-63
2022/01/20 05:51:57;;;;;;;99.17;61.50;;;;;;;;;;5016095;28;20590;-63
2022/01/20 05:54:23;;;;;;;102.93;64.20;;;;;;;;;;5010101;28;20030;-63
2022/01/20 05:56:50;;;;;;;106.20;66.10;;;;;;;;;;4996538;28;20030;-63
2022/01/20 05:59:16;;;;;;;106.03;63.03;;;;;;;;;;4997000;28;20475;-63
2022/01/20 06:01:45;;;;;;;104.77;65.90;;;;;;;;;;5009195;28;20045;-63
2022/01/20 06:04:11;;;;;;;98.87;61.47;;;;;;;;;;5015682;28;20116;-63
2022/01/20 06:06:38;;;;;;;100.17;63.13;;;;;;;;;;5015993;28;20033;-62
2022/01/20 06:09:05;;;;;;;97.03;62.67;;;;;;;;;;5015146;28;20025;-63
2022/01/20 06:11:31;;;;;;;108.30;65.67;;;;;;;;;;5015866;28;20022;-63
2022/01/20 06:13:57;;;;;;;106.80;64.90;;;;;;;;;;5015586;28;20030;-63
2022/01/20 06:16:24;;;;;;;101.63;63.90;;;;;;;;;;5014001;28;20032;-63
2022/01/20 06:18:50;;;;;;;100.73;61.97;;;;;;;;;;5016359;28;20486;-63
2022/01/20 06:21:17;;;;;;;109.03;64.50;;;;;;;;;;5014540;28;20108;-63
2022/01/20 06:23:43;;;;;;;102.30;64.07;;;;;;;;;;4998129;28;20088;-64
2022/01/20 06:26:09;;;;;;;104.83;64.43;;;;;;;;;;5014452;28;20100;-63
2022/01/20 06:28:36;;;;;;;107.53;64.23;;;;;;;;;;5015545;28;20097;-63
2022/01/20 06:31:02;;;;;;;107.10;65.27;;;;;;;;;;5008946;28;20057;-63
2022/01/20 06:33:28;;;;;;;107.80;66.27;;;;;;;;;;5015533;28;20061;-63
2022/01/20 06:35:54;;;;;;;107.40;65.47;;;;;;;;;;5012695;28;20034;-63
2022/01/20 06:38:20;;;;;;;106.37;66.60;;;;;;;;;;5015323;28;20018;-63
2022/01/20 06:40:46;;;;;;;103.10;63.63;;;;;;;;;;5014283;28;20491;-63
2022/01/20 06:43:12;;;;;;;105.47;65.57;;;;;;;;;;5015513;28;20108;-63
2022/01/20 06:45:38;;;;;;;110.93;66.17;;;;;;;;;;5014229;28;20132;-63
2022/01/20 06:48:05;;;;;;;105.27;62.83;;;;;;;;;;5014843;28;20053;-63
2022/01/20 06:50:31;;;;;;;106.87;65.53;;;;;;;;;;5026007;28;20104;-63
2022/01/20 06:52:57;;;;;;;101.70;65.60;;;;;;;;;;5018609;28;20056;-63
2022/01/20 06:55:23;;;;;;;102.93;63.33;;;;;;;;;;5012842;28;20433;-63
2022/01/20 06:57:49;;;;;;;108.80;66.37;;;;;;;;;;5024938;28;20037;-63
2022/01/20 07:00:17;;;;;;;103.00;63.10;;;;;;;;;;5028162;28;20090;-63
2022/01/20 07:02:43;;;;;;;107.43;65.90;;;;;;;;;;5011284;28;20022;-63
2022/01/20 07:05:10;;;;;;;105.03;64.57;;;;;;;;;;5024531;28;20483;-63
2022/01/20 07:07:36;;;;;;;111.17;66.10;;;;;;;;;;5025038;28;20033;-63
2022/01/20 07:10:03;;;;;;;109.03;66.43;;;;;;;;;;5008103;28;20064;-63
2022/01/20 07:12:29;;;;;;;107.87;64.30;;;;;;;;;;5005440;28;20041;-63
2022/01/20 07:14:55;;;;;;;106.33;63.60;;;;;;;;;;4998536;28;20026;-63
2022/01/20 07:17:21;;;;;;;104.90;64.67;;;;;;;;;;5007176;28;20025;-63
2022/01/20 07:19:47;;;;;;;102.47;62.83;;;;;;;;;;5024537;28;20084;-63
2022/01/20 07:22:13;;;;;;;107.83;62.07;;;;;;;;;;4996643;28;20034;-63
2022/01/20 07:24:39;;;;;;;100.00;61.80;;;;;;;;;;5008190;28;20018;-63
2022/01/20 07:27:05;;;;;;;95.23;59.07;;;;;;;;;;5033729;28;20104;-63
2022/01/20 07:29:31;;;;;;;75.00;44.77;;;;;;;;;;5019911;28;20765;-63
2022/01/20 07:35:01;;;;;;;92.30;55.90;;;;;;;;;;5011017;28;20490;-63
2022/01/20 07:37:27;;;;;;;101.70;61.40;;;;;;;;;;5007374;28;20093;-62
2022/01/20 07:39:55;;;;;;;70.80;43.00;;;;;;;;;;4995914;28;20030;-63
2022/01/20 07:42:21;;;;;;;84.00;49.70;;;;;;;;;;5008828;28;20395;-62
2022/01/20 07:44:47;;;;;;;76.23;47.97;;;;;;;;;;5010299;28;20022;-63
2022/01/20 07:47:13;;;;;;;77.77;46.13;;;;;;;;;;4993546;28;20161;-63
2022/01/20 07:49:39;;;;;;;63.57;39.00;;;;;;;;;;4995336;28;20388;-63
2022/01/20 07:52:06;;;;;;;79.60;45.97;;;;;;;;;;4960611;28;20109;-63
2022/01/20 07:54:32;;;;;;;73.57;44.73;;;;;;;;;;5001590;28;20026;-63
2022/01/20 07:56:58;;;;;;;71.97;43.20;;;;;;;;;;5012937;28;20440;-63
2022/01/20 07:59:26;;;;;;;76.23;46.57;;;;;;;;;;5012645;28;20108;-62
2022/01/20 08:01:52;;;;;;;81.10;47.70;;;;;;;;;;4994087;28;20046;-63
2022/01/20 08:04:19;;;;;;;76.93;49.43;;;;;;;;;;4993932;28;20064;-62
2022/01/20 08:06:45;;;;;;;67.53;40.63;;;;;;;;;;5012438;28;20029;-62
2022/01/20 08:09:11;;;;;;;67.67;39.10;;;;;;;;;;5013695;28;20036;-62
2022/01/20 08:11:37;;;;;;;70.33;41.90;;;;;;;;;;5010607;28;20026;-62
2022/01/20 08:14:03;;;;;;;64.17;37.67;;;;;;;;;;5004068;28;20092;-62
2022/01/20 08:16:29;;;;;;;65.17;39.53;;;;;;;;;;4993848;28;20396;-63
2022/01/20 08:18:55;;;;;;;65.67;40.30;;;;;;;;;;4999789;28;20373;-63
2022/01/20 08:21:21;;;;;;;72.63;41.77;;;;;;;;;;4993609;28;20045;-63
2022/01/20 08:23:47;;;;;;;74.43;44.77;;;;;;;;;;5000501;28;20019;-63
2022/01/20 08:26:13;;;;;;;77.03;44.97;;;;;;;;;;5006241;28;20113;-63
2022/01/20 08:28:39;;;;;;;67.57;41.20;;;;;;;;;;5010645;28;20018;-63
2022/01/20 08:31:06;;;;;;;68.83;42.17;;;;;;;;;;4999977;28;20066;-63
2022/01/20 08:33:32;;;;;;;71.30;42.40;;;;;;;;;;5006747;28;20028;-63
2022/01/20 08:35:58;;;;;;;66.30;42.67;;;;;;;;;;4995636;28;20026;-63
2022/01/20 08:38:24;;;;;;;68.33;42.00;;;;;;;;;;4998640;28;20416;-63
2022/01/20 08:40:50;;;;;;;88.33;52.90;;;;;;;;;;5012514;28;20185;-63
2022/01/20 08:43:16;;;;;;;91.27;58.90;;;;;;;;;;5011463;28;20018;-63
2022/01/20 08:45:44;;;;;;;93.10;57.10;;;;;;;;;;5012691;28;20046;-63
2022/01/20 08:48:12;;;;;;;93.60;61.17;;;;;;;;;;5008897;28;20045;-63
2022/01/20 08:50:39;;;;;;;101.10;62.97;;;;;;;;;;5012351;28;20030;-63
2022/01/20 08:53:05;;;;;;;101.57;61.80;;;;;;;;;;5004166;28;20472;-63
2022/01/20 08:55:31;;;;;;;99.97;62.03;;;;;;;;;;5008466;28;20030;-63
2022/01/20 08:57:58;;;;;;;104.43;64.40;;;;;;;;;;5000735;28;20030;-63
2022/01/20 09:00:28;;;;;;;104.07;61.87;;;;;;;;;;5010469;28;20081;-63
2022/01/20 09:02:54;;;;;;;105.77;63.80;;;;;;;;;;5002017;28;20029;-63
2022/01/20 09:05:21;;;;;;;98.13;61.00;;;;;;;;;;5002469;28;20373;-63
2022/01/20 09:07:47;;;;;;;104.57;62.67;;;;;;;;;;5009406;28;20018;-63
2022/01/20 09:10:19;;;;;;;100.83;62.60;;;;;;;;;;5013115;28;20022;-63
2022/01/20 09:15:28;;;;;;;100.47;63.33;;;;;;;;;;5013896;28;20030;-62
2022/01/20 09:17:54;;;;;;;102.13;62.07;;;;;;;;;;5009616;28;20030;-62
2022/01/20 09:20:21;;;;;;;102.37;64.47;;;;;;;;;;5011047;28;20028;-63
2022/01/20 09:22:48;;;;;;;103.53;64.03;;;;;;;;;;5009843;28;20570;-62
2022/01/20 09:25:15;;;;;;;108.50;64.87;;;;;;;;;;5010653;28;20033;-63
2022/01/20 09:27:41;;;;;;;100.90;64.33;;;;;;;;;;5002520;28;20496;-63
2022/01/20 09:30:08;;;;;;;101.90;62.83;;;;;;;;;;5001765;28;20401;-63
2022/01/20 09:32:38;;;;;;;102.30;62.03;;;;;;;;;;5009237;28;20021;-63
2022/01/20 09:35:04;;;;;;;109.47;65.37;;;;;;;;;;5013324;28;20022;-63
2022/01/20 09:37:30;;;;;;;109.30;66.10;;;;;;;;;;5010384;28;20513;-63
2022/01/20 09:39:56;;;;;;;104.40;64.07;;;;;;;;;;5006769;28;20046;-63
2022/01/20 09:42:24;;;;;;;102.53;64.87;;;;;;;;;;5001443;28;20026;-63
2022/01/20 09:44:52;;;;;;;105.77;64.30;;;;;;;;;;5001318;28;20490;-61
2022/01/20 09:47:19;;;;;;;108.13;66.43;;;;;;;;;;4996426;28;20029;-63
2022/01/20 09:49:45;;;;;;;113.57;64.60;;;;;;;;;;5009696;28;20022;-62
2022/01/20 09:52:11;;;;;;;105.53;63.80;;;;;;;;;;5004948;28;20030;-62
2022/01/20 09:54:38;;;;;;;105.10;65.17;;;;;;;;;;5003402;28;20022;-63
2022/01/20 09:57:04;;;;;;;106.20;64.87;;;;;;;;;;5000252;28;20109;-63
2022/01/20 09:59:31;;;;;;;107.33;64.97;;;;;;;;;;4999203;28;20026;-63
2022/01/20 10:01:58;;;;;;;99.93;61.77;;;;;;;;;;5001102;28;20467;-62
2022/01/20 10:04:24;;;;;;;102.13;62.67;;;;;;;;;;4996333;28;20061;-62
2022/01/20 10:07:04;;;;;;;97.77;61.60;;;;;;;;;;5004923;28;20054;-62
2022/01/20 10:09:36;;;;;;;100.27;62.23;;;;;;;;;;4998962;28;20030;-62
2022/01/20 10:12:02;;;;;;;96.23;60.33;;;;;;;;;;5012976;28;20216;-62
2022/01/20 10:14:38;;;;;;;94.73;60.87;;;;;;;;;;5004353;28;20039;-62
2022/01/20 10:17:14;;;;;;;93.90;59.33;;;;;;;;;;5007358;28;20034;-62
2022/01/20 10:19:41;;;;;;;94.37;60.10;;;;;;;;;;5005064;28;20388;-63
2022/01/20 10:22:11;;;;;;;97.37;59.67;;;;;;;;;;4996059;28;20431;-62
2022/01/20 10:24:37;;;;;;;99.40;60.17;;;;;;;;;;5000535;28;20030;-62
2022/01/20 10:27:08;;;;;;;99.23;59.70;;;;;;;;;;4994480;28;20400;-63
2022/01/20 10:29:34;;;;;;;98.93;60.93;;;;;;;;;;4997887;28;20113;-62
2022/01/20 10:32:00;;;;;;;96.43;60.53;;;;;;;;;;5012794;28;20510;-63
2022/01/20 10:34:30;;;;;;;96.87;59.97;;;;;;;;;;5004364;28;20034;-62
2022/01/20 10:37:00;;;;;;;99.17;62.70;;;;;;;;;;4997889;28;20034;-62
2022/01/20 10:39:28;;;;;;;98.83;61.10;;;;;;;;;;4996745;28;20161;-62
2022/01/20 10:41:59;;;;;;;97.53;61.70;;;;;;;;;;4995605;28;20085;-63
2022/01/20 10:44:25;;;;;;;97.80;62.50;;;;;;;;;;5007650;28;20037;-63
2022/01/20 10:46:52;;;;;;;98.87;61.23;;;;;;;;;;4995455;28;20400;-62
2022/01/20 10:49:20;;;;;;;94.87;58.07;;;;;;;;;;4996218;28;20026;-63
2022/01/20 10:51:59;;;;;;;91.00;58.30;;;;;;;;;;5006996;28;20081;-62
2022/01/20 10:54:26;;;;;;;95.03;60.27;;;;;;;;;;4995283;28;20041;-62
2022/01/20 10:56:57;;;;;;;92.13;58.63;;;;;;;;;;5010656;28;20495;-62
2022/01/20 10:59:24;;;;;;;96.20;59.97;;;;;;;;;;5005058;28;20391;-63
2022/01/20 11:01:59;;;;;;;96.03;59.73;;;;;;;;;;4994048;28;20080;-62
2022/01/20 11:04:25;;;;;;;94.63;60.20;;;;;;;;;;4987863;28;20479;-63
2022/01/20 11:06:55;;;;;;;93.60;60.40;;;;;;;;;;4997859;28;20390;-62
2022/01/20 11:09:22;;;;;;;104.00;64.03;;;;;;;;;;5002326;28;20072;-63
2022/01/20 11:11:49;;;;;;;95.40;61.17;;;;;;;;;;5014423;28;20021;-62
2022/01/20 11:14:15;;;;;;;101.63;63.27;;;;;;;;;;5004586;28;20061;-63
2022/01/20 11:16:41;;;;;;;98.20;61.70;;;;;;;;;;5011156;28;20113;-63
2022/01/20 11:19:18;;;;;;;100.57;62.73;;;;;;;;;;5002258;28;20033;-63
2022/01/20 11:21:45;;;;;;;96.27;61.03;;;;;;;;;;4999166;28;20126;-63
2022/01/20 11:24:21;;;;;;;103.00;64.87;;;;;;;;;;4999855;28;20022;-63
2022/01/20 11:26:57;;;;;;;97.83;61.57;;;;;;;;;;4994006;28;20038;-63
2022/01/20 11:29:25;;;;;;;95.27;62.03;;;;;;;;;;4998305;28;20479;-62
2022/01/20 11:31:52;;;;;;;99.10;60.97;;;;;;;;;;4997236;28;20054;-62
2022/01/20 11:34:20;;;;;;;97.10;61.93;;;;;;;;;;5000994;28;20040;-63
2022/01/20 11:36:47;;;;;;;98.53;62.80;;;;;;;;;;5000504;28;20026;-62
2022/01/20 11:39:14;;;;;;;97.03;63.17;;;;;;;;;;5005406;28;20034;-62
2022/01/20 11:41:43;;;;;;;100.90;61.47;;;;;;;;;;4993491;28;20451;-63
2022/01/20 11:44:14;;;;;;;95.87;60.73;;;;;;;;;;5003538;28;20030;-62
2022/01/20 11:46:44;;;;;;;94.93;61.13;;;;;;;;;;5013490;28;20076;-62
2022/01/20 11:49:11;;;;;;;97.13;60.80;;;;;;;;;;5010507;28;20165;-62
2022/01/20 11:51:43;;;;;;;96.10;58.97;;;;;;;;;;5007221;28;20031;-62
2022/01/20 11:54:10;;;;;;;94.10;58.97;;;;;;;;;;4994023;28;20074;-63
2022/01/20 11:56:40;;;;;;;96.07;61.07;;;;;;;;;;4976623;28;20399;-63
2022/01/20 11:59:08;;;;;;;95.40;58.67;;;;;;;;;;5001937;28;20163;-63
2022/01/20 12:01:55;;;;;;;95.73;59.37;;;;;;;;;;5010979;28;20562;-63
2022/01/20 12:04:31;;;;;;;95.73;59.87;;;;;;;;;;5002940;28;20044;-63
2022/01/20 12:06:58;;;;;;;95.60;58.40;;;;;;;;;;5005916;28;20117;-63
2022/01/20 12:09:35;;;;;;;92.27;57.20;;;;;;;;;;5002453;28;20040;-62
2022/01/20 12:12:06;;;;;;;91.87;58.37;;;;;;;;;;4981468;28;20030;-62
2022/01/20 12:14:38;;;;;;;99.20;60.00;;;;;;;;;;5001244;28;20046;-62
2022/01/20 12:17:15;;;;;;;89.27;56.97;;;;;;;;;;4999547;28;20045;-62
2022/01/20 12:19:42;;;;;;;94.07;57.50;;;;;;;;;;4997304;28;20050;-62
2022/01/20 12:22:08;;;;;;;94.10;56.90;;;;;;;;;;5003133;28;20060;-62
2022/01/20 12:24:35;;;;;;;92.13;57.83;;;;;;;;;;4993511;28;20873;-62
2022/01/20 12:27:02;;;;;;;90.17;57.60;;;;;;;;;;5011617;28;20047;-62
2022/01/20 12:29:37;;;;;;;92.57;56.93;;;;;;;;;;4992325;28;20034;-62
2022/01/20 12:32:10;;;;;;;93.87;58.10;;;;;;;;;;4981826;28;20494;-63
2022/01/20 12:34:36;;;;;;;95.43;57.17;;;;;;;;;;4980303;28;20042;-62
2022/01/20 12:37:03;;;;;;;97.37;59.00;;;;;;;;;;4996655;28;20030;-63
2022/01/20 12:39:30;;;;;;;100.07;60.53;;;;;;;;;;4986887;28;20032;-62
2022/01/20 12:41:57;;;;;;;98.63;59.10;;;;;;;;;;5006021;28;20125;-62
2022/01/20 12:44:24;;;;;;;97.93;61.53;;;;;;;;;;5002827;28;20118;-62
2022/01/20 12:46:50;;;;;;;102.50;61.57;;;;;;;;;;4995788;28;20089;-62
2022/01/20 12:49:17;;;;;;;101.10;61.80;;;;;;;;;;4984079;28;20121;-61
2022/01/20 12:51:43;;;;;;;99.30;61.00;;;;;;;;;;5001796;28;20046;-62
2022/01/20 12:54:29;;;;;;;99.23;61.10;;;;;;;;;;5002063;28;20038;-62
2022/01/20 12:56:56;;;;;;;101.27;60.67;;;;;;;;;;4993190;28;20050;-62
2022/01/20 12:59:25;;;;;;;100.30;63.40;;;;;;;;;;4981378;28;20377;-62
2022/01/20 13:01:52;;;;;;;105.47;64.47;;;;;;;;;;4986544;28;20054;-64
2022/01/20 13:04:20;;;;;;;104.77;66.13;;;;;;;;;;4978559;28;20125;-62
2022/01/20 13:06:59;;;;;;;102.60;64.27;;;;;;;;;;4988137;28;20077;-63
2022/01/20 13:09:36;;;;;;;100.87;63.83;;;;;;;;;;4983291;28;20042;-62
2022/01/20 13:12:02;;;;;;;101.67;63.53;;;;;;;;;;4999536;28;20068;-62
2022/01/20 13:14:34;;;;;;;106.40;64.07;;;;;;;;;;4994335;28;20078;-62
2022/01/20 13:17:01;;;;;;;102.47;65.10;;;;;;;;;;4992565;28;20500;-62
2022/01/20 13:19:43;;;;;;;100.47;64.37;;;;;;;;;;4996215;28;20093;-63
2022/01/20 13:22:19;;;;;;;105.53;65.23;;;;;;;;;;4981933;28;20042;-63
2022/01/20 13:24:46;;;;;;;108.83;67.57;;;;;;;;;;4983290;28;20053;-63
2022/01/20 13:27:12;;;;;;;101.80;65.53;;;;;;;;;;4986967;28;20042;-62
2022/01/20 13:29:43;;;;;;;108.97;67.53;;;;;;;;;;4984133;28;20039;-62
2022/01/20 13:32:10;;;;;;;106.13;67.63;;;;;;;;;;4979588;28;20042;-62
2022/01/20 13:34:36;;;;;;;109.33;67.40;;;;;;;;;;4989527;28;20407;-62
2022/01/20 13:37:02;;;;;;;105.47;65.77;;;;;;;;;;4997376;28;20130;-62
2022/01/20 13:39:35;;;;;;;106.70;65.97;;;;;;;;;;4989074;28;20042;-63
2022/01/20 13:42:06;;;;;;;110.33;65.97;;;;;;;;;;5002714;28;20536;-64
2022/01/20 13:47:32;;;;;;;100.73;63.13;;;;;;;;;;5022787;28;20836;-63
2022/01/20 13:49:58;;;;;;;95.77;63.93;;;;;;;;;;5005126;28;20041;-64
2022/01/20 13:52:24;;;;;;;99.30;61.50;;;;;;;;;;5022170;28;20041;-63
2022/01/20 13:54:55;;;;;;;97.17;61.60;;;;;;;;;;5021873;28;20468;-63
2022/01/20 13:57:23;;;;;;;96.97;62.50;;;;;;;;;;5025688;28;20111;-64
2022/01/20 13:59:49;;;;;;;100.67;61.23;;;;;;;;;;5031666;28;20128;-63
2022/01/20 14:02:15;;;;;;;96.97;61.90;;;;;;;;;;5028210;27;20523;-64
2022/01/20 14:04:41;;;;;;;94.23;59.63;;;;;;;;;;5017899;28;20049;-64
2022/01/20 14:07:07;;;;;;;97.87;59.87;;;;;;;;;;5031928;28;20503;-64
2022/01/20 14:09:33;;;;;;;97.90;60.43;;;;;;;;;;5029203;28;20033;-64
2022/01/20 14:11:59;;;;;;;95.37;58.17;;;;;;;;;;5033007;28;20037;-64
2022/01/20 14:14:25;;;;;;;101.53;62.97;;;;;;;;;;5033769;28;20072;-64
2022/01/20 14:16:51;;;;;;;97.50;63.97;;;;;;;;;;5034442;28;20487;-63
2022/01/20 14:19:22;;;;;;;140.20;69.03;;;;;;;;;;5025479;28;20480;-65
2022/01/20 14:21:48;;;;;;;114.23;64.13;;;;;;;;;;5020010;28;20038;-63
2022/01/20 14:24:14;;;;;;;101.43;62.87;;;;;;;;;;5023961;28;20030;-64
2022/01/20 14:26:44;;;;;;;97.27;62.77;;;;;;;;;;5025081;28;20095;-64
2022/01/20 14:29:10;;;;;;;104.03;66.20;;;;;;;;;;5031122;28;20049;-64
2022/01/20 14:31:36;;;;;;;101.23;64.37;;;;;;;;;;5033996;28;20479;-64
2022/01/20 14:34:03;;;;;;;110.93;67.33;;;;;;;;;;5034662;28;20104;-63
2022/01/20 14:36:29;;;;;;;108.13;67.07;;;;;;;;;;5010966;28;20034;-63
2022/01/20 14:38:55;;;;;;;106.87;68.07;;;;;;;;;;5041651;28;20044;-62
2022/01/20 14:41:21;;;;;;;116.53;68.97;;;;;;;;;;5047125;28;20045;-62
2022/01/20 14:43:46;;;;;;;105.70;67.77;;;;;;;;;;5027345;27;20033;-63
2022/01/20 14:46:13;;;;;;;110.43;67.37;;;;;;;;;;5030933;28;20033;-62
2022/01/20 14:48:39;;;;;;;105.13;66.33;;;;;;;;;;5029937;28;20554;-63
2022/01/20 14:51:08;;;;;;;102.07;65.03;;;;;;;;;;5031300;28;20043;-63
2022/01/20 14:53:34;;;;;;;105.97;66.43;;;;;;;;;;5027839;28;20061;-63
2022/01/20 14:56:00;;;;;;;104.22;65.72;;;;;;;;;;5034476;28;20067;-64
2022/01/20 14:58:27;;;;;;;106.63;65.28;;;;;;;;;;5035268;28;20525;-63
2022/01/20 15:00:53;;;;;;;103.83;64.77;;;;;;;;;;5012535;28;20033;-63
2022/01/20 15:03:19;;;;;;;101.93;63.57;;;;;;;;;;5009067;28;20111;-63
2022/01/20 15:05:47;;;;;;;98.50;63.67;;;;;;;;;;5011172;28;20038;-64
2022/01/20 15:08:13;;;;;;;101.13;62.93;;;;;;;;;;5015562;28;20175;-64
2022/01/20 15:10:39;;;;;;;102.90;64.10;;;;;;;;;;5010144;28;20034;-63
2022/01/20 15:13:06;;;;;;;104.73;63.90;;;;;;;;;;5012713;28;20052;-64